Time;durP1;ratioP1;P1;durP2;ratioP2;P2;SDS_P1;SDS_P2;PMS_P1;PMS_P2;Temp;Humidity;BMP_temperature;BMP_pressure;BME280_temperature;BME280_humidity;BME280_pressure;Samples;Min_cycle;Max_cycle;Signal;HPM_P1;HPM_P2
2022/07/18 00:01:37;;;;;;;7.93;4.80;;;15.30;99.90;;;;;;5077630;28;20041;-76
2022/07/18 00:04:04;;;;;;;6.77;5.10;;;15.20;99.90;;;;;;5064060;28;20040;-76
2022/07/18 00:06:30;;;;;;;6.97;4.73;;;15.20;99.90;;;;;;5047822;28;20080;-77
2022/07/18 00:08:55;;;;;;;7.40;4.97;;;15.20;99.90;;;;;;5070235;28;20071;-76
2022/07/18 00:11:21;;;;;;;9.00;5.30;;;15.10;99.90;;;;;;5087394;28;20126;-76
2022/07/18 00:13:47;;;;;;;7.03;5.33;;;15.10;99.90;;;;;;5059047;28;20040;-76
2022/07/18 00:16:13;;;;;;;9.03;4.87;;;15.10;99.90;;;;;;5056910;28;20044;-76
2022/07/18 00:18:39;;;;;;;6.80;5.00;;;15.10;99.90;;;;;;5071963;28;20097;-78
2022/07/18 00:21:07;;;;;;;7.50;5.20;;;15.00;99.90;;;;;;5061706;28;20513;-76
2022/07/18 00:23:32;;;;;;;10.20;5.83;;;15.00;99.90;;;;;;5053407;28;20044;-76
2022/07/18 00:25:58;;;;;;;8.07;5.77;;;15.00;99.90;;;;;;5068800;28;20051;-77
2022/07/18 00:28:24;;;;;;;8.50;5.40;;;15.00;99.90;;;;;;5070219;28;20043;-76
2022/07/18 00:30:49;;;;;;;7.13;5.97;;;15.00;99.90;;;;;;5068849;28;20531;-76
2022/07/18 00:33:15;;;;;;;9.00;6.10;;;14.90;99.90;;;;;;5070174;28;20110;-76
2022/07/18 00:35:41;;;;;;;8.13;6.17;;;14.90;99.90;;;;;;5077809;28;20044;-76
2022/07/18 00:38:08;;;;;;;9.10;5.20;;;14.90;99.90;;;;;;5056297;28;20052;-76
2022/07/18 00:40:34;;;;;;;7.73;5.60;;;14.90;99.90;;;;;;5056780;28;20054;-76
2022/07/18 00:42:59;;;;;;;10.40;5.77;;;14.80;99.90;;;;;;5072426;28;20062;-76
2022/07/18 00:45:26;;;;;;;7.27;5.53;;;14.80;99.90;;;;;;5089947;28;20422;-78
2022/07/18 00:47:52;;;;;;;7.23;5.33;;;14.80;99.90;;;;;;5088790;28;20077;-76
2022/07/18 00:50:18;;;;;;;6.60;5.13;;;14.70;99.90;;;;;;5073067;28;20525;-76
2022/07/18 00:52:44;;;;;;;6.87;5.60;;;14.70;99.90;;;;;;5056595;28;20063;-76
2022/07/18 00:55:11;;;;;;;5.83;4.80;;;14.60;99.90;;;;;;5073169;28;20450;-76
2022/07/18 00:57:39;;;;;;;5.90;4.93;;;14.60;99.90;;;;;;5073010;28;20048;-76
2022/07/18 01:02:53;;;;;;;7.63;4.90;;;14.60;99.90;;;;;;5078050;28;20403;-76
2022/07/18 01:05:19;;;;;;;8.73;5.83;;;14.60;99.90;;;;;;5045526;28;20045;-76
2022/07/18 01:07:45;;;;;;;8.57;5.77;;;14.60;99.90;;;;;;5071108;28;20055;-76
2022/07/18 01:10:12;;;;;;;7.30;5.77;;;14.50;99.90;;;;;;5073675;28;20048;-76
2022/07/18 01:12:38;;;;;;;6.73;5.17;;;14.50;99.90;;;;;;5073600;28;20068;-76
2022/07/18 01:15:05;;;;;;;6.50;5.23;;;14.50;99.90;;;;;;5084363;28;20071;-78
2022/07/18 01:17:31;;;;;;;7.97;5.33;;;14.50;99.90;;;;;;5063628;28;20040;-76
2022/07/18 01:19:57;;;;;;;6.87;5.40;;;14.50;99.90;;;;;;5085033;28;20391;-77
2022/07/18 01:22:24;;;;;;;7.70;5.23;;;14.50;99.90;;;;;;5072486;28;20051;-76
2022/07/18 01:24:50;;;;;;;6.87;5.10;;;14.50;99.90;;;;;;5045103;28;20090;-76
2022/07/18 01:27:20;;;;;;;9.73;5.40;;;14.50;99.90;;;;;;5038666;28;20613;-77
2022/07/18 01:29:48;;;;;;;7.37;5.17;;;14.40;99.90;;;;;;5070657;28;20048;-75
2022/07/18 01:32:15;;;;;;;8.77;5.20;;;14.40;99.90;;;;;;5066214;28;20119;-76
2022/07/18 01:34:41;;;;;;;10.33;6.20;;;14.40;99.90;;;;;;5079520;28;20044;-76
2022/07/18 01:37:08;;;;;;;8.07;6.30;;;14.40;99.90;;;;;;5042343;28;20048;-76
2022/07/18 01:39:35;;;;;;;8.83;6.10;;;14.40;99.90;;;;;;5059933;28;20044;-76
2022/07/18 01:42:04;;;;;;;7.50;6.03;;;14.30;99.90;;;;;;5048966;28;20036;-76
2022/07/18 01:44:31;;;;;;;7.77;6.23;;;14.30;99.90;;;;;;5056376;28;20052;-76
2022/07/18 01:46:57;;;;;;;7.87;5.30;;;14.20;99.90;;;;;;5072618;28;20048;-76
2022/07/18 01:49:23;;;;;;;7.23;5.77;;;14.20;99.90;;;;;;5056281;28;20037;-76
2022/07/18 01:51:52;;;;;;;8.57;5.40;;;14.20;99.90;;;;;;5081402;28;20071;-76
2022/07/18 01:54:20;;;;;;;7.17;5.40;;;14.20;99.90;;;;;;5065596;28;20040;-76
2022/07/18 01:56:47;;;;;;;6.83;4.70;;;14.10;99.90;;;;;;5055681;28;20143;-76
2022/07/18 01:59:12;;;;;;;7.33;4.60;;;14.10;99.90;;;;;;5072704;28;20060;-76
2022/07/18 02:01:38;;;;;;;7.30;4.50;;;14.10;99.90;;;;;;5078197;28;20036;-76
2022/07/18 02:04:05;;;;;;;6.03;4.40;;;14.10;99.90;;;;;;5070313;28;20036;-76
2022/07/18 02:06:31;;;;;;;8.77;5.43;;;14.00;99.90;;;;;;5075717;28;20043;-76
2022/07/18 02:08:56;;;;;;;7.90;5.17;;;14.00;99.90;;;;;;5092673;28;20059;-75
2022/07/18 02:11:22;;;;;;;6.70;5.27;;;14.00;99.90;;;;;;5058173;28;20040;-76
2022/07/18 02:13:50;;;;;;;9.13;5.70;;;14.00;99.90;;;;;;5077839;28;20075;-76
2022/07/18 02:16:15;;;;;;;7.10;4.13;;;14.00;99.90;;;;;;5040158;28;20077;-77
2022/07/18 02:18:41;;;;;;;6.23;4.83;;;13.90;99.90;;;;;;5065945;28;20048;-77
2022/07/18 02:21:08;;;;;;;7.77;5.20;;;13.90;99.90;;;;;;5083375;28;20760;-77
2022/07/18 02:23:34;;;;;;;7.53;5.43;;;13.90;99.90;;;;;;5066895;28;20097;-76
2022/07/18 02:26:00;;;;;;;9.13;5.70;;;13.90;99.90;;;;;;5065191;28;20040;-76
2022/07/18 02:28:26;;;;;;;8.27;5.53;;;13.80;99.90;;;;;;5072440;28;20415;-76
2022/07/18 02:30:54;;;;;;;8.77;5.10;;;13.80;99.90;;;;;;5056447;28;20454;-76
2022/07/18 02:33:19;;;;;;;8.33;5.57;;;13.80;99.90;;;;;;5057971;28;20059;-76
2022/07/18 02:35:45;;;;;;;7.20;4.97;;;13.80;99.90;;;;;;5071483;28;20040;-76
2022/07/18 02:38:11;;;;;;;7.00;5.43;;;13.80;99.90;;;;;;5075007;28;20434;-76
2022/07/18 02:40:37;;;;;;;7.57;5.27;;;13.80;99.90;;;;;;5075303;28;20066;-76
2022/07/18 02:43:03;;;;;;;9.17;5.47;;;13.80;99.90;;;;;;5075084;28;20392;-76
2022/07/18 02:45:30;;;;;;;8.50;5.57;;;13.80;99.90;;;;;;5090886;28;20040;-76
2022/07/18 02:47:57;;;;;;;7.53;5.40;;;13.80;99.90;;;;;;5091878;28;20108;-76
2022/07/18 02:50:23;;;;;;;7.83;5.70;;;13.80;99.90;;;;;;5039018;28;20044;-76
2022/07/18 02:52:50;;;;;;;9.90;5.90;;;13.70;99.90;;;;;;5055166;28;20044;-76
2022/07/18 02:55:16;;;;;;;8.37;6.20;;;13.70;99.90;;;;;;5065898;28;20553;-76
2022/07/18 02:57:42;;;;;;;9.13;6.20;;;13.60;99.90;;;;;;5077667;28;20101;-76
2022/07/18 03:00:11;;;;;;;10.47;6.57;;;13.60;99.90;;;;;;5058263;28;20052;-76
2022/07/18 03:02:37;;;;;;;9.87;7.00;;;13.60;99.90;;;;;;5060793;28;20047;-76
2022/07/18 03:05:06;;;;;;;11.27;7.70;;;13.60;99.90;;;;;;5055127;28;20446;-77
2022/07/18 03:07:31;;;;;;;9.17;6.90;;;13.60;99.90;;;;;;5070978;28;20503;-76
2022/07/18 03:09:58;;;;;;;13.00;7.43;;;13.60;99.90;;;;;;5071265;28;20123;-77
2022/07/18 03:12:23;;;;;;;9.53;7.17;;;13.60;99.90;;;;;;5065204;28;20131;-76
2022/07/18 03:14:50;;;;;;;8.90;6.87;;;13.60;99.90;;;;;;5076835;28;20111;-76
2022/07/18 03:17:16;;;;;;;9.53;6.77;;;13.60;99.90;;;;;;5073983;28;20125;-76
2022/07/18 03:19:41;;;;;;;8.87;6.80;;;13.60;99.90;;;;;;5069216;28;20040;-76
2022/07/18 03:22:08;;;;;;;9.37;7.40;;;13.50;99.90;;;;;;5079587;28;20138;-77
2022/07/18 03:24:34;;;;;;;11.93;7.27;;;13.50;99.90;;;;;;5062898;28;20118;-76
2022/07/18 03:27:00;;;;;;;9.93;7.23;;;13.60;99.90;;;;;;5073332;28;20047;-77
2022/07/18 03:29:26;;;;;;;10.50;7.20;;;13.60;99.90;;;;;;5078886;28;20048;-76
2022/07/18 03:31:52;;;;;;;8.67;6.50;;;13.60;99.90;;;;;;5070363;28;20072;-76
2022/07/18 03:34:18;;;;;;;8.90;6.53;;;13.60;99.90;;;;;;5079274;28;20036;-77
2022/07/18 03:36:44;;;;;;;11.77;6.73;;;13.60;99.90;;;;;;5085086;28;20048;-77
2022/07/18 03:39:12;;;;;;;9.77;7.40;;;13.60;99.90;;;;;;5057594;28;20407;-77
2022/07/18 03:41:38;;;;;;;10.67;7.00;;;13.70;99.90;;;;;;5040780;28;20098;-77
2022/07/18 03:44:05;;;;;;;14.57;7.67;;;13.70;99.90;;;;;;5040809;28;20040;-77
2022/07/18 03:46:30;;;;;;;9.13;7.07;;;13.70;99.90;;;;;;5053985;28;20048;-76
2022/07/18 03:48:56;;;;;;;10.57;7.60;;;13.70;99.90;;;;;;5066491;28;20037;-76
2022/07/18 03:51:22;;;;;;;10.33;7.50;;;13.70;99.90;;;;;;5037803;28;20048;-77
2022/07/18 03:53:48;;;;;;;12.50;7.33;;;13.80;99.90;;;;;;5054045;28;20432;-76
2022/07/18 03:56:15;;;;;;;10.40;7.23;;;13.80;99.90;;;;;;5056951;28;20164;-76
2022/07/18 03:58:42;;;;;;;9.33;7.13;;;13.80;99.90;;;;;;5073601;28;20067;-76
2022/07/18 04:01:07;;;;;;;10.50;7.13;;;13.80;99.90;;;;;;5063503;28;20050;-76
2022/07/18 04:03:33;;;;;;;10.90;7.10;;;13.80;99.90;;;;;;5068231;28;20065;-76
2022/07/18 04:05:59;;;;;;;13.23;7.20;;;13.90;99.90;;;;;;5073455;28;20043;-76
2022/07/18 04:08:25;;;;;;;10.47;7.07;;;13.90;99.90;;;;;;5090652;28;20445;-76
2022/07/18 04:10:51;;;;;;;8.63;7.03;;;13.90;99.90;;;;;;5090818;28;20097;-76
2022/07/18 04:13:18;;;;;;;9.50;7.57;;;14.00;99.90;;;;;;5073616;28;20077;-76
2022/07/18 04:15:44;;;;;;;9.80;7.10;;;14.00;99.90;;;;;;5072539;28;20044;-76
2022/07/18 04:18:10;;;;;;;11.67;7.30;;;14.00;99.90;;;;;;5067514;28;20051;-76
2022/07/18 04:20:38;;;;;;;12.23;7.37;;;14.00;99.90;;;;;;5056691;28;20044;-76
2022/07/18 04:23:07;;;;;;;11.63;7.43;;;14.10;99.90;;;;;;5083715;28;20079;-76
2022/07/18 04:25:35;;;;;;;11.07;7.40;;;14.20;99.90;;;;;;5067290;28;20517;-77
2022/07/18 04:28:02;;;;;;;9.30;6.67;;;14.20;99.90;;;;;;5066101;28;20050;-77
2022/07/18 04:30:30;;;;;;;10.60;7.60;;;14.20;99.90;;;;;;5059835;28;20066;-76
2022/07/18 04:32:56;;;;;;;8.03;6.57;;;14.20;99.90;;;;;;5066874;28;20526;-77
2022/07/18 04:35:23;;;;;;;12.53;7.70;;;14.30;99.90;;;;;;5067104;28;20590;-76
2022/07/18 04:37:50;;;;;;;9.90;7.10;;;14.30;99.90;;;;;;5078151;28;20044;-76
2022/07/18 04:40:16;;;;;;;11.47;6.50;;;14.40;99.90;;;;;;5082413;28;20455;-78
2022/07/18 04:42:42;;;;;;;9.17;6.70;;;14.40;99.90;;;;;;5084129;28;20036;-76
2022/07/18 04:45:09;;;;;;;11.70;7.20;;;14.50;99.90;;;;;;5070022;28;20127;-77
2022/07/18 04:47:36;;;;;;;12.03;7.57;;;14.50;99.90;;;;;;5076071;28;20115;-76
2022/07/18 04:50:02;;;;;;;12.33;7.30;;;14.60;99.90;;;;;;5093129;28;20058;-76
2022/07/18 04:52:36;;;;;;;9.10;6.87;;;14.70;99.90;;;;;;5074000;28;20044;-76
2022/07/18 04:55:02;;;;;;;11.68;7.55;;;14.80;99.90;;;;;;5073823;28;20064;-77
2022/07/18 04:57:28;;;;;;;9.63;6.73;;;14.90;99.90;;;;;;5087679;28;20036;-77
2022/07/18 04:59:54;;;;;;;11.60;6.40;;;15.00;99.90;;;;;;5088549;28;20040;-76
2022/07/18 05:02:19;;;;;;;8.87;6.40;;;15.10;99.90;;;;;;5072351;28;20136;-78
2022/07/18 05:04:46;;;;;;;10.43;6.07;;;15.20;99.90;;;;;;5071899;28;20040;-78
2022/07/18 05:07:12;;;;;;;10.43;6.60;;;15.20;99.90;;;;;;5065009;28;20058;-78
2022/07/18 05:09:38;;;;;;;15.97;6.47;;;15.30;99.90;;;;;;5060415;28;20043;-78
2022/07/18 05:12:04;;;;;;;10.10;5.83;;;15.40;99.90;;;;;;5076695;28;20044;-78
2022/07/18 05:14:30;;;;;;;9.43;6.00;;;15.40;99.90;;;;;;5060633;28;20054;-78
2022/07/18 05:16:56;;;;;;;9.10;5.90;;;15.50;99.90;;;;;;5076638;28;20143;-77
2022/07/18 05:19:21;;;;;;;9.17;6.60;;;15.50;99.90;;;;;;5076528;28;20043;-77
2022/07/18 05:21:48;;;;;;;9.97;6.30;;;15.60;99.90;;;;;;5093746;28;20075;-78
2022/07/18 05:24:14;;;;;;;12.73;6.40;;;15.70;99.90;;;;;;5071764;28;20449;-78
2022/07/18 05:26:40;;;;;;;11.30;5.90;;;15.70;99.90;;;;;;5073253;28;20043;-77
2022/07/18 05:29:06;;;;;;;8.83;6.23;;;15.80;99.90;;;;;;5076593;28;20048;-77
2022/07/18 05:31:31;;;;;;;12.63;6.53;;;15.80;99.90;;;;;;5075316;28;20469;-77
2022/07/18 05:33:57;;;;;;;13.63;6.93;;;15.80;99.90;;;;;;5076514;28;20051;-78
2022/07/18 05:36:23;;;;;;;10.30;6.63;;;15.90;99.90;;;;;;5058407;28;20048;-78
2022/07/18 05:38:50;;;;;;;13.87;6.80;;;15.90;99.90;;;;;;5093357;28;20135;-78
2022/07/18 05:41:16;;;;;;;14.93;6.70;;;16.00;99.90;;;;;;5093683;28;20470;-78
2022/07/18 05:43:41;;;;;;;11.63;6.73;;;16.00;99.90;;;;;;5093593;28;20078;-77
2022/07/18 05:46:08;;;;;;;9.33;6.83;;;16.10;99.90;;;;;;5059185;28;20496;-77
2022/07/18 05:48:34;;;;;;;10.90;6.60;;;16.20;99.90;;;;;;5093104;28;20093;-78
2022/07/18 05:50:59;;;;;;;13.60;7.63;;;16.30;99.90;;;;;;5059952;28;20052;-78
2022/07/18 05:53:25;;;;;;;12.73;7.50;;;16.40;99.90;;;;;;5092070;28;20510;-77
2022/07/18 05:55:52;;;;;;;11.43;7.50;;;16.60;99.90;;;;;;5059051;28;20036;-78
2022/07/18 05:58:18;;;;;;;15.47;7.30;;;16.80;99.90;;;;;;5059241;28;20048;-78
2022/07/18 06:00:44;;;;;;;8.77;6.17;;;16.90;99.90;;;;;;5076318;28;20450;-77
2022/07/18 06:03:11;;;;;;;13.90;6.50;;;17.00;99.90;;;;;;5073033;28;20066;-78
2022/07/18 06:05:37;;;;;;;10.93;5.93;;;17.00;99.90;;;;;;5042459;28;20075;-78
2022/07/18 06:08:03;;;;;;;9.53;6.60;;;17.10;99.90;;;;;;5059281;28;20043;-78
2022/07/18 06:10:29;;;;;;;12.10;6.80;;;17.20;99.90;;;;;;5075738;28;20048;-78
2022/07/18 06:12:56;;;;;;;11.90;5.70;;;17.20;99.90;;;;;;5058937;28;20074;-78
2022/07/18 06:15:22;;;;;;;8.30;5.50;;;17.30;99.90;;;;;;5058843;28;20090;-78
2022/07/18 06:17:48;;;;;;;10.93;6.07;;;17.40;99.90;;;;;;5042222;28;20048;-78
2022/07/18 06:20:14;;;;;;;7.43;5.70;;;17.50;99.90;;;;;;5059007;28;20495;-78
2022/07/18 06:22:40;;;;;;;9.30;5.40;;;17.50;99.90;;;;;;5071081;28;20057;-78
2022/07/18 06:25:07;;;;;;;10.67;5.50;;;17.60;99.90;;;;;;5069856;28;20054;-78
2022/07/18 06:27:33;;;;;;;7.90;4.80;;;17.70;99.90;;;;;;5057191;28;20048;-78
2022/07/18 06:30:00;;;;;;;8.97;5.20;;;17.90;99.90;;;;;;5073851;28;20106;-78
2022/07/18 06:32:25;;;;;;;11.30;4.57;;;18.00;99.90;;;;;;5041217;28;20423;-78
2022/07/18 06:34:51;;;;;;;9.27;5.43;;;18.10;99.90;;;;;;5076415;28;20055;-78
2022/07/18 06:37:17;;;;;;;10.70;5.30;;;18.20;99.90;;;;;;5073954;28;20508;-77
2022/07/18 06:39:42;;;;;;;9.67;5.13;;;18.30;99.90;;;;;;5075420;28;20080;-78
2022/07/18 06:42:08;;;;;;;9.13;4.93;;;18.40;99.90;;;;;;5078363;28;20035;-78
2022/07/18 06:44:34;;;;;;;9.10;5.00;;;18.40;99.90;;;;;;5076027;28;20131;-78
2022/07/18 06:47:01;;;;;;;9.60;5.33;;;18.50;99.90;;;;;;5058529;28;20100;-78
2022/07/18 06:49:27;;;;;;;11.80;5.30;;;18.60;99.90;;;;;;5058270;28;20101;-78
2022/07/18 06:51:53;;;;;;;8.33;5.10;;;18.60;99.90;;;;;;5075273;28;20495;-78
2022/07/18 06:54:20;;;;;;;13.13;5.23;;;18.70;99.90;;;;;;5074789;28;20087;-78
2022/07/18 06:56:45;;;;;;;9.67;5.07;;;18.90;99.90;;;;;;5075278;28;20399;-78
2022/07/18 06:59:11;;;;;;;8.83;4.60;;;18.90;99.90;;;;;;5059570;28;20040;-78
2022/07/18 07:01:37;;;;;;;8.17;4.23;;;19.10;99.90;;;;;;5077125;28;20036;-78
2022/07/18 07:04:04;;;;;;;9.20;4.20;;;19.20;99.90;;;;;;5083069;28;20503;-78
2022/07/18 07:06:30;;;;;;;7.33;3.70;;;19.30;99.90;;;;;;5079864;28;20093;-77
2022/07/18 07:08:56;;;;;;;7.93;3.60;;;19.40;99.90;;;;;;5078374;28;20047;-78
2022/07/18 07:11:21;;;;;;;7.13;3.40;;;19.50;99.90;;;;;;5059916;28;20078;-78
2022/07/18 07:13:48;;;;;;;9.97;3.57;;;19.50;99.90;;;;;;5059051;28;20074;-78
2022/07/18 07:16:13;;;;;;;12.23;3.43;;;19.60;99.90;;;;;;5058732;28;20104;-77
2022/07/18 07:18:40;;;;;;;7.23;3.20;;;19.70;99.90;;;;;;5061014;28;20051;-78
2022/07/18 07:21:08;;;;;;;7.03;3.50;;;19.70;99.90;;;;;;5075761;28;20055;-78
2022/07/18 07:23:34;;;;;;;9.77;3.13;;;19.80;99.90;;;;;;5075281;28;20135;-78
2022/07/18 07:26:00;;;;;;;6.60;3.13;;;19.90;99.90;;;;;;5039203;28;20144;-78
2022/07/18 07:28:26;;;;;;;4.60;2.60;;;20.00;99.90;;;;;;5066106;28;20500;-79
2022/07/18 07:30:51;;;;;;;7.33;2.90;;;20.10;99.90;;;;;;5075147;28;20043;-78
2022/07/18 07:33:17;;;;;;;6.17;3.37;;;20.20;99.90;;;;;;5088054;28;20049;-79
2022/07/18 07:35:43;;;;;;;8.40;3.10;;;20.30;99.90;;;;;;5087252;28;20482;-78
2022/07/18 07:38:17;;;;;;;7.10;3.50;;;20.30;99.90;;;;;;5086116;28;20509;-78
2022/07/18 07:40:43;;;;;;;5.60;3.10;;;20.40;99.90;;;;;;5054082;28;20143;-78
2022/07/18 07:43:10;;;;;;;8.77;3.70;;;20.40;99.90;;;;;;5082381;28;20064;-78
2022/07/18 07:45:37;;;;;;;6.33;3.20;;;20.50;99.90;;;;;;5090525;28;20495;-78
2022/07/18 07:48:03;;;;;;;6.83;3.53;;;20.60;99.90;;;;;;5081555;28;20051;-78
2022/07/18 07:50:29;;;;;;;5.40;3.10;;;20.70;99.90;;;;;;5071509;28;20044;-78
2022/07/18 07:52:55;;;;;;;8.37;3.37;;;20.80;99.90;;;;;;5059718;28;20105;-77
2022/07/18 07:55:22;;;;;;;6.87;3.10;;;21.10;99.90;;;;;;5087514;28;20495;-78
2022/07/18 07:57:48;;;;;;;5.20;3.00;;;21.30;99.90;;;;;;5035947;28;20143;-78
2022/07/18 08:00:15;;;;;;;6.93;3.00;;;21.50;99.90;;;;;;5052766;28;20123;-78
2022/07/18 08:02:56;;;;;;;4.13;2.50;;;21.70;99.90;;;;;;5037700;28;20048;-78
2022/07/18 08:05:22;;;;;;;5.67;2.33;;;21.80;99.90;;;;;;5052989;28;20149;-79
2022/07/18 08:07:47;;;;;;;5.13;2.40;;;22.00;99.90;;;;;;5053474;28;20056;-78
2022/07/18 08:10:13;;;;;;;7.20;2.80;;;22.10;99.40;;;;;;5090606;28;20129;-79
2022/07/18 08:12:40;;;;;;;7.17;2.50;;;22.30;99.10;;;;;;5074069;28;20415;-78
2022/07/18 08:15:08;;;;;;;4.87;2.10;;;22.40;98.00;;;;;;5053671;28;20105;-78
2022/07/18 08:17:34;;;;;;;7.07;2.87;;;22.40;97.10;;;;;;5072622;28;20043;-78
2022/07/18 08:19:59;;;;;;;4.73;2.10;;;22.40;97.10;;;;;;5053538;28;20503;-78
2022/07/18 08:22:25;;;;;;;4.47;2.20;;;22.50;96.20;;;;;;5069931;28;20048;-79
2022/07/18 08:24:51;;;;;;;5.00;2.07;;;22.60;96.80;;;;;;5042337;28;20042;-78
2022/07/18 08:27:17;;;;;;;4.27;2.40;;;22.70;97.40;;;;;;5068507;28;20056;-77
2022/07/18 08:29:44;;;;;;;4.53;2.30;;;22.80;97.40;;;;;;5070755;28;20051;-78
2022/07/18 08:32:10;;;;;;;5.38;2.25;;;22.90;96.20;;;;;;5061529;28;20427;-79
2022/07/18 08:34:35;;;;;;;6.65;2.10;;;23.00;96.00;;;;;;5079817;28;20051;-79
2022/07/18 08:37:01;;;;;;;8.75;2.90;;;23.00;95.70;;;;;;5062927;28;20040;-79
2022/07/18 08:39:27;;;;;;;6.47;2.22;;;23.10;95.40;;;;;;5044687;28;20046;-79
2022/07/18 08:41:54;;;;;;;6.30;2.78;;;23.20;95.00;;;;;;5066717;28;20052;-79
2022/07/18 08:44:21;;;;;;;6.75;2.00;;;23.30;94.30;;;;;;5043467;28;20044;-79
2022/07/18 08:46:50;;;;;;;4.78;2.33;;;23.40;94.00;;;;;;5090529;28;20059;-79
2022/07/18 08:49:16;;;;;;;8.40;2.13;;;23.50;93.00;;;;;;5078275;28;20041;-78
2022/07/18 08:51:43;;;;;;;6.10;2.47;;;23.60;93.60;;;;;;5070134;28;20049;-80
2022/07/18 08:54:09;;;;;;;5.85;2.42;;;23.70;93.60;;;;;;5052946;28;20041;-80
2022/07/18 08:56:34;;;;;;;6.47;2.38;;;23.80;92.60;;;;;;5089464;28;20044;-78
2022/07/18 08:59:02;;;;;;;6.95;2.30;;;23.90;92.00;;;;;;5087620;28;20093;-79
2022/07/18 09:01:28;;;;;;;7.07;2.90;;;23.90;92.20;;;;;;5068274;28;20040;-79
2022/07/18 09:06:44;;;;;;;4.93;2.08;;;24.10;93.20;;;;;;5084305;28;19920;-77
2022/07/18 09:09:11;;;;;;;8.93;2.50;;;24.30;92.70;;;;;;5071890;28;20058;-77
2022/07/18 09:11:48;;;;;;;5.75;1.95;;;24.50;91.80;;;;;;5071866;28;20205;-78
2022/07/18 09:14:31;;;;;;;5.68;2.00;;;24.60;91.90;;;;;;5086724;28;20123;-76
2022/07/18 09:17:07;;;;;;;4.80;2.20;;;24.70;90.70;;;;;;5061410;28;20084;-76
2022/07/18 09:19:36;;;;;;;11.43;2.05;;;24.80;90.80;;;;;;5068101;28;20087;-76
2022/07/18 09:22:14;;;;;;;7.30;2.10;;;25.00;90.40;;;;;;5053576;28;20044;-77
2022/07/18 09:24:58;;;;;;;13.07;1.90;;;25.10;90.40;;;;;;5047955;28;20036;-76
2022/07/18 09:27:26;;;;;;;8.13;1.80;;;25.20;87.50;;;;;;5067027;28;20048;-76
2022/07/18 09:30:22;;;;;;;7.85;1.63;;;25.40;88.50;;;;;;5061331;28;20045;-76
2022/07/18 09:32:51;;;;;;;4.68;1.50;;;25.60;82.60;;;;;;5052951;28;20037;-77
2022/07/18 09:35:21;;;;;;;3.78;1.63;;;25.80;81.20;;;;;;5076894;28;20048;-76
2022/07/18 09:37:56;;;;;;;3.88;1.77;;;26.00;82.50;;;;;;5073122;28;20055;-77
2022/07/18 09:40:24;;;;;;;6.63;1.63;;;26.10;80.30;;;;;;5085812;28;20070;-76
2022/07/18 09:42:51;;;;;;;4.32;2.00;;;26.30;80.10;;;;;;5083142;28;20064;-77
2022/07/18 09:45:25;;;;;;;4.25;1.83;;;26.40;77.60;;;;;;5091278;28;20044;-77
2022/07/18 09:47:53;;;;;;;5.20;1.67;;;26.50;75.30;;;;;;5091518;28;20044;-77
2022/07/18 09:50:23;;;;;;;3.90;1.90;;;26.80;77.40;;;;;;5091632;28;20044;-77
2022/07/18 09:52:56;;;;;;;4.05;1.70;;;27.20;77.70;;;;;;5074914;28;20111;-78
2022/07/18 09:55:23;;;;;;;5.57;2.00;;;27.40;74.40;;;;;;5074935;28;20058;-77
2022/07/18 09:57:58;;;;;;;4.43;1.52;;;27.60;75.20;;;;;;5075133;28;20117;-77
2022/07/18 10:00:25;;;;;;;6.45;1.80;;;27.70;69.50;;;;;;5075614;28;20040;-78
2022/07/18 10:02:51;;;;;;;6.75;1.77;;;27.70;67.60;;;;;;5071892;28;20047;-78
2022/07/18 10:05:17;;;;;;;6.95;1.70;;;27.70;66.50;;;;;;5058219;28;20052;-77
2022/07/18 10:07:48;;;;;;;4.25;1.80;;;27.90;66.00;;;;;;5058300;28;20052;-77
2022/07/18 10:10:15;;;;;;;5.07;1.73;;;28.00;65.40;;;;;;5042355;28;20442;-78
2022/07/18 10:12:42;;;;;;;7.18;2.08;;;28.30;65.50;;;;;;5057906;28;20044;-75
2022/07/18 10:15:08;;;;;;;7.03;1.80;;;28.50;63.90;;;;;;5054043;28;20569;-77
2022/07/18 10:17:34;;;;;;;5.93;2.10;;;28.60;61.40;;;;;;5078056;28;20407;-78
2022/07/18 10:20:04;;;;;;;4.38;1.90;;;29.00;62.30;;;;;;5078339;28;20048;-78
2022/07/18 10:22:30;;;;;;;8.45;1.92;;;29.30;61.30;;;;;;5075111;28;20045;-79
2022/07/18 10:24:57;;;;;;;4.60;1.90;;;29.20;60.60;;;;;;5070933;28;20047;-77
2022/07/18 10:27:24;;;;;;;10.43;2.13;;;29.00;60.80;;;;;;5055022;28;20504;-77
2022/07/18 10:30:11;;;;;;;8.85;2.13;;;29.00;60.80;;;;;;5070228;28;20039;-77
2022/07/18 10:32:37;;;;;;;6.13;2.20;;;29.10;59.80;;;;;;5074389;28;20136;-77
2022/07/18 10:35:03;;;;;;;6.85;1.92;;;29.20;59.30;;;;;;5090304;28;20467;-77
2022/07/18 10:37:33;;;;;;;4.18;1.90;;;29.30;58.20;;;;;;5087970;28;20530;-77
2022/07/18 10:40:21;;;;;;;5.00;2.13;;;29.30;58.40;;;;;;5088318;28;20036;-77
2022/07/18 10:43:25;;;;;;;4.22;1.80;;;29.40;57.00;;;;;;5089927;28;20052;-77
2022/07/18 10:45:51;;;;;;;5.93;2.00;;;29.70;57.40;;;;;;5070509;28;20088;-78
2022/07/18 10:48:54;;;;;;;10.63;1.90;;;30.00;60.30;;;;;;5057705;28;20103;-79
2022/07/18 10:51:31;;;;;;;5.53;2.10;;;30.20;54.10;;;;;;5081735;28;20520;-78
2022/07/18 10:54:11;;;;;;;6.60;2.28;;;30.10;54.20;;;;;;5084150;28;20082;-80
2022/07/18 10:57:10;;;;;;;7.32;2.65;;;30.20;52.10;;;;;;5056817;28;20039;-77
2022/07/18 11:00:00;;;;;;;5.95;2.30;;;30.10;50.50;;;;;;5070261;28;20087;-78
2022/07/18 11:02:34;;;;;;;4.40;2.10;;;30.10;51.70;;;;;;5054549;28;20044;-78
2022/07/18 11:05:00;;;;;;;4.25;1.65;;;30.10;50.80;;;;;;5055801;28;20047;-77
2022/07/18 11:07:27;;;;;;;7.25;2.13;;;30.20;52.40;;;;;;5073541;28;20426;-77
2022/07/18 11:09:52;;;;;;;6.07;2.15;;;30.40;52.10;;;;;;5071632;28;20074;-77
2022/07/18 11:12:29;;;;;;;3.25;1.83;;;30.50;50.40;;;;;;5088780;28;20040;-77
2022/07/18 11:15:01;;;;;;;3.55;2.10;;;30.60;50.10;;;;;;5087641;28;20071;-78
2022/07/18 11:17:55;;;;;;;7.45;2.50;;;30.50;47.80;;;;;;5073464;28;20048;-78
2022/07/18 11:20:26;;;;;;;5.07;2.22;;;30.30;47.60;;;;;;5070496;28;20052;-77
2022/07/18 11:22:52;;;;;;;6.07;1.92;;;30.30;49.30;;;;;;5070206;28;20036;-78
2022/07/18 11:25:18;;;;;;;4.38;2.53;;;30.50;47.50;;;;;;5064197;28;20201;-77
2022/07/18 11:27:45;;;;;;;3.75;2.22;;;30.60;47.30;;;;;;5072119;28;20453;-79
2022/07/18 11:30:16;;;;;;;4.07;2.28;;;30.70;45.90;;;;;;5068844;28;20084;-76
2022/07/18 11:32:42;;;;;;;4.47;2.38;;;30.70;45.00;;;;;;5063163;28;20487;-77
2022/07/18 11:35:09;;;;;;;3.72;2.10;;;30.80;45.40;;;;;;5052696;28;20044;-78
2022/07/18 11:37:36;;;;;;;7.05;2.35;;;31.10;46.30;;;;;;5077882;28;20040;-79
2022/07/18 11:40:06;;;;;;;3.53;2.20;;;31.10;45.60;;;;;;5089773;28;20072;-78
2022/07/18 11:42:36;;;;;;;6.07;2.60;;;31.30;45.80;;;;;;5085440;28;20040;-79
2022/07/18 11:45:05;;;;;;;5.55;2.38;;;31.60;44.60;;;;;;5052831;28;20087;-78
2022/07/18 11:47:31;;;;;;;6.70;2.50;;;31.50;43.90;;;;;;5085912;28;20083;-77
2022/07/18 11:49:57;;;;;;;5.55;2.58;;;31.30;44.60;;;;;;5068994;28;20578;-77
2022/07/18 11:52:23;;;;;;;3.28;2.10;;;31.30;45.00;;;;;;5069822;28;20119;-79
2022/07/18 11:54:49;;;;;;;5.70;2.35;;;31.00;43.90;;;;;;5087767;28;20124;-78
2022/07/18 11:57:26;;;;;;;3.97;2.47;;;30.50;44.00;;;;;;5088778;28;20051;-76
2022/07/18 11:59:51;;;;;;;6.38;3.30;;;30.40;45.80;;;;;;5073285;28;20131;-77
2022/07/18 12:02:19;;;;;;;5.03;2.47;;;30.20;45.00;;;;;;5084193;28;20136;-77
2022/07/18 12:04:45;;;;;;;6.45;2.70;;;29.90;44.40;;;;;;5077614;28;20058;-77
2022/07/18 12:07:15;;;;;;;4.65;2.50;;;29.80;44.50;;;;;;5069799;28;20041;-77
2022/07/18 12:09:41;;;;;;;7.55;2.80;;;29.60;46.20;;;;;;5052359;28;20058;-77
2022/07/18 12:12:09;;;;;;;5.32;2.50;;;29.50;46.30;;;;;;5055803;28;20559;-77
2022/07/18 12:14:34;;;;;;;6.82;2.42;;;29.40;46.40;;;;;;5072255;28;20131;-78
2022/07/18 12:17:00;;;;;;;4.82;2.67;;;29.40;46.50;;;;;;5070289;28;20130;-77
2022/07/18 12:19:35;;;;;;;6.53;2.65;;;29.40;47.80;;;;;;5071898;28;20499;-77
2022/07/18 12:22:05;;;;;;;5.18;2.63;;;29.50;48.60;;;;;;5053903;28;20080;-78
2022/07/18 12:24:33;;;;;;;3.95;2.75;;;29.80;49.80;;;;;;5072085;28;20079;-77
2022/07/18 12:27:23;;;;;;;5.03;2.60;;;30.20;48.40;;;;;;5049471;28;20040;-77
2022/07/18 12:30:09;;;;;;;4.40;2.78;;;30.40;48.00;;;;;;5089292;28;20048;-78
2022/07/18 12:32:44;;;;;;;7.35;3.08;;;30.60;45.70;;;;;;5080434;28;20143;-77
2022/07/18 12:35:13;;;;;;;6.13;2.50;;;30.50;45.90;;;;;;5085173;28;20040;-78
2022/07/18 12:37:40;;;;;;;4.35;2.80;;;30.30;47.10;;;;;;5055325;28;20665;-77
2022/07/18 12:40:09;;;;;;;5.03;3.10;;;30.10;46.20;;;;;;5071394;28;20051;-77
2022/07/18 12:42:37;;;;;;;7.50;3.33;;;30.00;45.40;;;;;;5088123;28;20038;-77
2022/07/18 12:45:05;;;;;;;4.18;2.88;;;30.00;44.60;;;;;;5071560;28;20403;-77
2022/07/18 12:47:31;;;;;;;5.97;3.00;;;30.20;44.40;;;;;;5088610;28;20066;-77
2022/07/18 12:49:57;;;;;;;4.80;3.03;;;30.50;44.40;;;;;;5055411;28;20143;-77
2022/07/18 12:52:24;;;;;;;5.78;3.03;;;30.80;45.00;;;;;;5070458;28;20123;-77
2022/07/18 12:54:50;;;;;;;5.00;3.00;;;31.10;43.90;;;;;;5088399;28;20060;-78